createdAt,value
2022-11-06T00:01:05.323Z,9.44
2022-11-06T00:03:31.941Z,9.48
2022-11-06T00:05:58.491Z,9.39
2022-11-06T00:08:31.668Z,9.29
2022-11-06T00:10:58.631Z,9.42
2022-11-06T00:13:26.836Z,9.28
2022-11-06T00:15:53.816Z,9.24
2022-11-06T00:18:20.895Z,9.27
2022-11-06T00:20:47.746Z,9.27
2022-11-06T00:23:14.616Z,9.35
2022-11-06T00:25:42.025Z,9.40
2022-11-06T00:28:09.445Z,9.35
2022-11-06T00:30:39.403Z,9.44
2022-11-06T00:33:05.960Z,9.33
2022-11-06T00:35:32.700Z,9.30
2022-11-06T00:37:59.689Z,9.16
2022-11-06T00:40:26.242Z,9.13
2022-11-06T00:42:56.581Z,9.23
2022-11-06T00:45:24.186Z,9.07
2022-11-06T00:47:52.805Z,9.17
2022-11-06T00:50:19.339Z,9.12
2022-11-06T00:52:45.881Z,9.18
2022-11-06T00:55:13.961Z,9.12
2022-11-06T00:57:41.712Z,9.20
2022-11-06T01:00:09.682Z,9.07
2022-11-06T01:02:36.369Z,9.05
2022-11-06T01:05:05.191Z,9.20
2022-11-06T01:07:32.405Z,9.22
2022-11-06T01:09:59.048Z,9.10
2022-11-06T01:12:25.616Z,9.10
2022-11-06T01:14:52.130Z,9.02
2022-11-06T01:17:19.032Z,9.11
2022-11-06T01:19:45.856Z,9.30
2022-11-06T01:22:14.112Z,9.37
2022-11-06T01:24:41.404Z,9.23
2022-11-06T01:29:55.385Z,9.04
2022-11-06T01:32:22.073Z,9.09
2022-11-06T01:34:49.461Z,9.19
2022-11-06T01:37:17.409Z,9.19
2022-11-06T01:39:44.269Z,9.10
2022-11-06T01:42:12.198Z,9.29
2022-11-06T01:45:15.505Z,9.24
2022-11-06T01:47:43.406Z,9.42
2022-11-06T01:50:12.654Z,9.32
2022-11-06T01:52:41.808Z,9.18
2022-11-06T01:55:11.703Z,9.23
2022-11-06T01:57:41.819Z,9.33
2022-11-06T02:00:09.593Z,9.43
2022-11-06T02:02:37.188Z,9.43
2022-11-06T02:05:04.577Z,9.42
2022-11-06T02:07:33.358Z,9.13
2022-11-06T02:10:01.317Z,9.17
2022-11-06T02:12:45.085Z,9.21
2022-11-06T02:15:19.455Z,9.06
2022-11-06T02:18:01.255Z,8.91
2022-11-06T02:20:35.548Z,8.93
2022-11-06T02:23:30.825Z,9.09
2022-11-06T02:26:08.638Z,9.17
2022-11-06T02:28:40.111Z,8.96
2022-11-06T02:31:12.242Z,9.13
2022-11-06T02:33:46.702Z,9.12
2022-11-06T02:36:19.000Z,9.07
2022-11-06T02:38:51.152Z,9.26
2022-11-06T02:41:22.577Z,9.18
2022-11-06T02:43:54.887Z,9.39
2022-11-06T02:46:26.900Z,9.63
2022-11-06T02:48:58.729Z,9.81
2022-11-06T02:51:28.631Z,9.88
2022-11-06T02:54:00.856Z,9.79
2022-11-06T02:56:33.151Z,9.79
2022-11-06T02:59:04.768Z,9.45
2022-11-06T03:01:34.863Z,9.51
2022-11-06T03:04:06.298Z,9.55
2022-11-06T03:06:36.076Z,9.21
2022-11-06T03:09:07.464Z,9.39
2022-11-06T03:11:35.944Z,9.43
2022-11-06T03:14:09.932Z,9.18
2022-11-06T03:16:47.120Z,9.24
2022-11-06T03:19:22.533Z,9.11
2022-11-06T03:21:57.674Z,8.95
2022-11-06T03:24:31.504Z,8.91
2022-11-06T03:27:02.341Z,9.14
2022-11-06T03:29:39.498Z,9.14
2022-11-06T03:32:13.983Z,8.95
2022-11-06T03:34:46.163Z,8.91
2022-11-06T03:37:16.903Z,8.80
2022-11-06T03:39:53.965Z,9.11
2022-11-06T03:42:23.971Z,8.83
2022-11-06T03:44:59.627Z,8.90
2022-11-06T03:47:31.294Z,9.10
2022-11-06T03:50:01.321Z,8.98
2022-11-06T03:52:32.574Z,9.03
2022-11-06T03:55:03.473Z,9.15
2022-11-06T03:57:36.099Z,8.87
2022-11-06T04:00:06.911Z,9.00
2022-11-06T04:02:37.368Z,9.15
2022-11-06T04:05:08.935Z,9.16
2022-11-06T04:07:38.887Z,9.17
2022-11-06T04:10:09.009Z,9.00
2022-11-06T04:12:37.566Z,9.13
2022-11-06T04:15:10.502Z,8.96
2022-11-06T04:17:38.330Z,8.99
2022-11-06T04:20:09.399Z,9.02
2022-11-06T04:22:48.305Z,9.09
2022-11-06T04:25:29.530Z,9.01
2022-11-06T04:28:14.237Z,9.07
2022-11-06T04:30:53.064Z,8.81
2022-11-06T04:33:26.237Z,8.81
2022-11-06T04:36:02.118Z,8.85
2022-11-06T04:38:39.968Z,9.01
2022-11-06T04:41:17.627Z,8.93
2022-11-06T04:43:49.650Z,8.86
2022-11-06T04:46:23.325Z,8.95
2022-11-06T04:48:51.401Z,8.98
2022-11-06T04:51:22.426Z,8.88
2022-11-06T04:53:51.328Z,8.95
2022-11-06T04:56:25.748Z,8.99
2022-11-06T04:58:52.570Z,8.98
2022-11-06T05:01:20.899Z,8.83
2022-11-06T05:03:47.887Z,8.93
2022-11-06T05:06:14.614Z,8.95
2022-11-06T05:08:42.385Z,8.71
2022-11-06T05:11:09.156Z,9.04
2022-11-06T05:13:36.136Z,8.97
2022-11-06T05:16:03.093Z,9.02
2022-11-06T05:18:31.814Z,9.15
2022-11-06T05:20:59.674Z,8.95
2022-11-06T05:23:26.194Z,8.94
2022-11-06T05:25:52.731Z,9.10
2022-11-06T05:28:19.397Z,9.04
2022-11-06T05:30:46.087Z,9.01
2022-11-06T05:33:12.730Z,9.12
2022-11-06T05:35:40.786Z,8.90
2022-11-06T05:38:07.479Z,8.79
2022-11-06T05:40:34.003Z,8.93
2022-11-06T05:43:00.757Z,8.87
2022-11-06T05:45:27.600Z,9.14
2022-11-06T05:47:54.323Z,9.00
2022-11-06T05:50:22.200Z,8.95
2022-11-06T05:52:50.183Z,8.91
2022-11-06T05:55:17.231Z,8.93
2022-11-06T05:57:43.767Z,9.04
2022-11-06T06:00:11.992Z,8.97
2022-11-06T06:02:38.899Z,9.03
2022-11-06T06:05:07.032Z,8.98
2022-11-06T06:07:33.568Z,9.03
2022-11-06T06:10:01.916Z,9.04
2022-11-06T06:12:31.113Z,8.93
2022-11-06T06:14:57.697Z,9.10
2022-11-06T06:17:24.365Z,9.09
2022-11-06T06:19:51.076Z,9.05
2022-11-06T06:22:17.874Z,8.96
2022-11-06T06:24:44.639Z,9.01
2022-11-06T06:27:12.700Z,9.01
2022-11-06T06:29:39.857Z,9.06
2022-11-06T06:32:07.045Z,9.10
2022-11-06T06:34:34.737Z,9.14
2022-11-06T06:37:01.453Z,9.24
2022-11-06T06:39:28.016Z,9.29
2022-11-06T06:41:54.666Z,9.33
2022-11-06T06:44:22.634Z,9.27
2022-11-06T06:46:49.426Z,9.38
2022-11-06T06:49:16.530Z,9.32
2022-11-06T06:51:46.366Z,9.45
2022-11-06T06:54:15.944Z,9.26
2022-11-06T06:56:42.858Z,9.46
2022-11-06T06:59:09.572Z,9.73
2022-11-06T07:01:37.718Z,9.66
2022-11-06T07:04:05.048Z,9.64
2022-11-06T07:06:31.957Z,9.82
2022-11-06T07:09:01.923Z,10.19
2022-11-06T07:11:28.512Z,10.11
2022-11-06T07:13:55.038Z,10.43
2022-11-06T07:16:21.775Z,10.28
2022-11-06T07:18:49.983Z,10.50
2022-11-06T07:21:17.032Z,10.55
2022-11-06T07:23:43.702Z,10.76
2022-11-06T07:26:10.326Z,10.81
2022-11-06T07:28:37.330Z,11.03
2022-11-06T07:31:06.328Z,11.18
2022-11-06T07:33:33.156Z,11.28
2022-11-06T07:36:04.904Z,11.35
2022-11-06T07:38:33.648Z,11.64
2022-11-06T07:41:01.978Z,11.76
2022-11-06T07:43:28.547Z,11.96
2022-11-06T07:45:58.753Z,12.06
2022-11-06T07:48:25.251Z,11.99
2022-11-06T07:50:51.793Z,12.21
2022-11-06T07:53:23.963Z,12.02
2022-11-06T07:55:51.316Z,12.13
2022-11-06T07:58:18.393Z,12.39
2022-11-06T08:00:47.398Z,12.36
2022-11-06T08:03:14.375Z,12.41
2022-11-06T08:05:41.011Z,12.67
2022-11-06T08:08:07.577Z,12.81
2022-11-06T08:10:35.731Z,12.85
2022-11-06T08:13:02.292Z,12.96
2022-11-06T08:15:30.078Z,13.16
2022-11-06T08:18:00.024Z,13.18
2022-11-06T08:20:26.628Z,13.33
2022-11-06T08:22:57.909Z,13.11
2022-11-06T08:25:26.408Z,12.96
2022-11-06T08:27:56.053Z,13.04
2022-11-06T08:30:25.056Z,12.77
2022-11-06T08:32:51.783Z,12.68
2022-11-06T08:35:18.981Z,12.96
2022-11-06T08:37:46.358Z,13.24
2022-11-06T08:40:13.431Z,13.35
2022-11-06T08:42:40.215Z,13.18
2022-11-06T08:45:10.064Z,13.31
2022-11-06T08:47:36.639Z,13.59
2022-11-06T08:50:03.543Z,13.71
2022-11-06T08:52:34.040Z,13.79
2022-11-06T08:55:01.344Z,13.72
2022-11-06T08:57:27.882Z,13.31
2022-11-06T08:59:54.598Z,13.43
2022-11-06T09:02:23.119Z,13.19
2022-11-06T09:04:49.755Z,12.89
2022-11-06T09:07:16.677Z,12.94
2022-11-06T09:09:43.686Z,13.47
2022-11-06T09:12:13.063Z,13.46
2022-11-06T09:14:39.571Z,13.71
2022-11-06T09:17:06.345Z,13.85
2022-11-06T09:19:36.047Z,14.04
2022-11-06T09:22:03.502Z,13.99
2022-11-06T09:24:57.091Z,14.45
2022-11-06T09:27:16.617Z,14.21
2022-11-06T09:29:45.519Z,14.34
2022-11-06T09:32:16.182Z,14.24
2022-11-06T09:34:44.827Z,14.03
2022-11-06T09:37:11.354Z,13.93
2022-11-06T09:39:38.163Z,13.74
2022-11-06T09:42:15.520Z,13.77
2022-11-06T09:44:56.276Z,14.26
2022-11-06T09:47:28.902Z,14.45
2022-11-06T09:50:00.305Z,14.24
2022-11-06T09:52:33.821Z,14.09
2022-11-06T09:55:05.312Z,14.31
2022-11-06T09:57:38.443Z,14.18
2022-11-06T10:00:07.672Z,13.92
2022-11-06T10:02:40.933Z,13.90
2022-11-06T10:05:18.887Z,13.65
2022-11-06T10:07:49.998Z,13.61
2022-11-06T10:10:19.704Z,13.81
2022-11-06T10:13:06.427Z,14.03
2022-11-06T10:15:37.576Z,14.03
2022-11-06T10:18:12.856Z,13.76
2022-11-06T10:20:51.429Z,14.18
2022-11-06T10:23:25.778Z,14.48
2022-11-06T10:26:04.435Z,14.58
2022-11-06T10:28:48.325Z,14.66
2022-11-06T10:31:27.221Z,14.90
2022-11-06T10:33:58.575Z,15.01
2022-11-06T10:36:31.497Z,14.97
2022-11-06T10:38:59.872Z,15.13
2022-11-06T10:41:31.154Z,14.93
2022-11-06T10:44:07.856Z,14.72
2022-11-06T10:46:38.403Z,14.84
2022-11-06T10:49:11.755Z,14.63
2022-11-06T10:52:00.926Z,14.64
2022-11-06T10:54:38.340Z,14.35
2022-11-06T10:57:18.091Z,14.57
2022-11-06T10:59:45.261Z,14.57
2022-11-06T11:02:24.377Z,14.26
2022-11-06T11:04:56.741Z,14.55
2022-11-06T11:07:29.671Z,14.23
2022-11-06T11:09:59.088Z,14.21
2022-11-06T11:12:28.709Z,14.31
2022-11-06T11:15:12.451Z,14.32
2022-11-06T11:17:40.856Z,14.35
2022-11-06T11:20:31.260Z,14.24
2022-11-06T11:23:15.084Z,14.34
2022-11-06T11:25:43.933Z,14.42
2022-11-06T11:28:25.964Z,14.51
2022-11-06T11:30:55.158Z,14.52
2022-11-06T11:33:25.313Z,14.34
2022-11-06T11:35:54.255Z,14.27
2022-11-06T11:38:23.050Z,14.39
2022-11-06T11:40:50.114Z,14.63
2022-11-06T11:43:23.508Z,14.46
2022-11-06T11:46:06.389Z,14.59
2022-11-06T11:48:47.354Z,14.70
2022-11-06T11:51:29.579Z,14.43
2022-11-06T11:54:02.233Z,14.40
2022-11-06T11:56:57.701Z,14.33
2022-11-06T11:59:17.604Z,14.46
2022-11-06T12:01:44.317Z,14.33
2022-11-06T12:04:19.087Z,14.29
2022-11-06T12:06:59.327Z,14.49
2022-11-06T12:09:29.923Z,14.43
2022-11-06T12:12:00.977Z,14.67
2022-11-06T12:14:36.498Z,14.47
2022-11-06T12:17:17.802Z,14.40
2022-11-06T12:19:50.589Z,14.38
2022-11-06T12:22:23.482Z,14.50
2022-11-06T12:24:55.411Z,14.80
2022-11-06T12:27:27.720Z,14.65
2022-11-06T12:30:02.735Z,14.91
2022-11-06T12:32:39.946Z,14.99
2022-11-06T12:35:17.613Z,14.74
2022-11-06T12:37:55.725Z,14.83
2022-11-06T12:40:29.475Z,15.01
2022-11-06T12:43:07.065Z,14.84
2022-11-06T12:45:48.186Z,14.66
2022-11-06T12:48:29.169Z,14.49
2022-11-06T12:51:05.677Z,14.39
2022-11-06T12:53:44.353Z,14.29
2022-11-06T12:56:19.235Z,14.34
2022-11-06T12:59:05.487Z,14.43
2022-11-06T13:01:46.378Z,14.34
2022-11-06T13:04:28.849Z,14.07
2022-11-06T13:07:08.897Z,14.34
2022-11-06T13:09:47.561Z,14.22
2022-11-06T13:12:23.078Z,14.56
2022-11-06T13:15:12.970Z,14.60
2022-11-06T13:17:46.852Z,14.64
2022-11-06T13:20:22.060Z,14.60
2022-11-06T13:22:59.320Z,14.36
2022-11-06T13:25:38.156Z,14.67
2022-11-06T13:28:27.447Z,14.69
2022-11-06T13:30:57.100Z,14.69
2022-11-06T13:33:28.427Z,14.69
2022-11-06T13:35:55.234Z,14.85
2022-11-06T13:38:27.641Z,14.45
2022-11-06T13:41:03.176Z,14.10
2022-11-06T13:43:36.243Z,14.21
2022-11-06T13:46:08.958Z,14.14
2022-11-06T13:48:47.599Z,14.27
2022-11-06T13:51:20.943Z,14.15
2022-11-06T13:53:59.672Z,14.15
2022-11-06T13:56:52.962Z,14.33
2022-11-06T13:59:45.741Z,14.30
2022-11-06T14:02:36.438Z,14.12
2022-11-06T14:05:28.771Z,14.10
2022-11-06T14:07:58.461Z,13.73
2022-11-06T14:10:31.885Z,13.92
2022-11-06T14:12:58.502Z,13.79
2022-11-06T14:15:34.628Z,13.91
2022-11-06T14:18:01.843Z,13.98
2022-11-06T14:20:32.128Z,14.00
2022-11-06T14:23:47.474Z,14.31
2022-11-06T14:26:34.546Z,14.16
2022-11-06T14:29:53.535Z,13.84
2022-11-06T14:32:40.900Z,14.15
2022-11-06T14:35:50.618Z,13.98
2022-11-06T14:38:33.537Z,13.70
2022-11-06T14:41:01.313Z,13.79
2022-11-06T14:43:30.684Z,13.74
2022-11-06T14:46:00.636Z,13.77
2022-11-06T14:48:36.556Z,13.48
2022-11-06T14:51:06.188Z,13.75
2022-11-06T14:53:37.646Z,13.55
2022-11-06T14:56:07.469Z,13.62
2022-11-06T14:58:38.559Z,13.56
2022-11-06T15:01:14.608Z,13.41
2022-11-06T15:03:51.118Z,13.63
2022-11-06T15:06:37.269Z,13.70
2022-11-06T15:09:05.955Z,13.42
2022-11-06T15:11:53.313Z,13.48
2022-11-06T15:14:54.558Z,13.42
2022-11-06T15:17:23.957Z,13.34
2022-11-06T15:20:00.345Z,13.36
2022-11-06T15:22:36.078Z,13.37
2022-11-06T15:25:18.708Z,13.26
2022-11-06T15:27:52.261Z,13.19
2022-11-06T15:30:20.330Z,13.13
2022-11-06T15:32:52.305Z,13.20
2022-11-06T15:35:23.418Z,13.04
2022-11-06T15:37:53.554Z,12.82
2022-11-06T15:40:29.146Z,12.84
2022-11-06T15:42:58.259Z,12.82
2022-11-06T15:45:27.637Z,12.60
2022-11-06T15:47:59.234Z,12.41
2022-11-06T15:50:28.929Z,12.43
2022-11-06T15:53:16.157Z,12.02
2022-11-06T15:55:47.795Z,12.22
2022-11-06T15:58:30.659Z,12.27
2022-11-06T16:01:01.132Z,12.02
2022-11-06T16:03:30.460Z,11.87
2022-11-06T16:06:01.718Z,11.99
2022-11-06T16:08:30.926Z,11.68
2022-11-06T16:10:58.941Z,11.67
2022-11-06T16:13:26.479Z,11.55
2022-11-06T16:15:59.898Z,11.49
2022-11-06T16:18:30.342Z,11.51
2022-11-06T16:21:11.436Z,11.50
2022-11-06T16:23:41.694Z,11.38
2022-11-06T16:26:10.106Z,11.46
2022-11-06T16:28:42.885Z,11.47
2022-11-06T16:31:23.577Z,11.52
2022-11-06T16:34:03.972Z,11.37
2022-11-06T16:36:52.715Z,11.55
2022-11-06T16:39:48.809Z,11.40
2022-11-06T16:42:26.036Z,11.38
2022-11-06T16:45:11.129Z,11.37
2022-11-06T16:47:37.866Z,11.31
2022-11-06T16:50:43.861Z,11.34
2022-11-06T16:53:12.965Z,11.35
2022-11-06T16:55:41.944Z,11.17
2022-11-06T16:58:16.658Z,11.23
2022-11-06T17:00:44.359Z,11.16
2022-11-06T17:03:25.447Z,11.06
2022-11-06T17:05:55.513Z,11.14
2022-11-06T17:08:27.354Z,11.02
2022-11-06T17:10:55.141Z,11.06
2022-11-06T17:13:23.830Z,11.07
2022-11-06T17:15:54.182Z,10.88
2022-11-06T17:18:22.863Z,10.97
2022-11-06T17:21:04.632Z,10.99
2022-11-06T17:23:33.730Z,10.81
2022-11-06T17:26:03.534Z,10.80
2022-11-06T17:28:32.791Z,11.04
2022-11-06T17:30:59.858Z,10.78
2022-11-06T17:33:26.402Z,10.88
2022-11-06T17:35:53.032Z,10.77
2022-11-06T17:38:20.113Z,10.63
2022-11-06T17:40:48.519Z,10.73
2022-11-06T17:43:16.285Z,10.46
2022-11-06T17:45:44.893Z,10.42
2022-11-06T17:48:12.145Z,10.32
2022-11-06T17:50:39.170Z,10.43
2022-11-06T17:53:06.116Z,10.37
2022-11-06T17:55:33.023Z,10.34
2022-11-06T17:58:01.020Z,10.34
2022-11-06T18:00:27.603Z,9.94
2022-11-06T18:03:01.660Z,10.05
2022-11-06T18:05:29.030Z,10.12
2022-11-06T18:07:55.572Z,10.29
2022-11-06T18:10:27.455Z,10.39
2022-11-06T18:12:56.614Z,10.36
2022-11-06T18:15:24.888Z,10.29
2022-11-06T18:17:53.663Z,10.28
2022-11-06T18:20:20.596Z,10.27
2022-11-06T18:22:47.446Z,10.22
2022-11-06T18:25:15.233Z,10.39
2022-11-06T18:27:42.007Z,10.15
2022-11-06T18:30:10.015Z,10.46
2022-11-06T18:32:38.041Z,10.24
2022-11-06T18:35:05.832Z,10.44
2022-11-06T18:37:32.714Z,10.45
2022-11-06T18:39:59.305Z,10.31
2022-11-06T18:42:26.004Z,10.46
2022-11-06T18:44:52.571Z,10.62
2022-11-06T18:47:22.759Z,10.62
2022-11-06T18:49:51.026Z,10.62
2022-11-06T18:52:38.045Z,10.76
2022-11-06T18:55:07.155Z,10.58
2022-11-06T18:57:33.738Z,10.65
2022-11-06T19:00:00.283Z,10.80
2022-11-06T19:02:27.734Z,10.57
2022-11-06T19:04:56.051Z,10.72
2022-11-06T19:07:22.792Z,10.78
2022-11-06T19:09:49.429Z,10.93
2022-11-06T19:12:16.658Z,10.96
2022-11-06T19:14:43.309Z,11.21
2022-11-06T19:17:11.733Z,11.29
2022-11-06T19:19:41.709Z,11.16
2022-11-06T19:22:10.046Z,11.07
2022-11-06T19:24:36.812Z,11.08
2022-11-06T19:27:03.541Z,11.21
2022-11-06T19:29:30.260Z,11.19
2022-11-06T19:31:56.964Z,11.15
2022-11-06T19:34:23.759Z,11.34
2022-11-06T19:36:50.351Z,11.11
2022-11-06T19:39:18.345Z,11.25
2022-11-06T19:41:45.018Z,10.93
2022-11-06T19:44:11.669Z,11.16
2022-11-06T19:46:38.704Z,11.20
2022-11-06T19:49:07.015Z,11.21
2022-11-06T19:51:39.279Z,11.51
2022-11-06T19:54:05.971Z,11.08
2022-11-06T19:56:34.384Z,11.39
2022-11-06T19:59:01.024Z,11.39
2022-11-06T20:01:28.865Z,11.36
2022-11-06T20:03:56.568Z,11.20
2022-11-06T20:06:23.246Z,11.26
2022-11-06T20:09:00.104Z,11.43
2022-11-06T20:11:27.005Z,11.41
2022-11-06T20:13:55.098Z,11.33
2022-11-06T20:16:21.802Z,11.60
2022-11-06T20:18:54.311Z,11.45
2022-11-06T20:21:22.854Z,11.57
2022-11-06T20:24:00.167Z,11.51
2022-11-06T20:26:26.735Z,11.54
2022-11-06T20:29:01.141Z,11.68
2022-11-06T20:31:28.222Z,11.75
2022-11-06T20:33:57.745Z,11.79
2022-11-06T20:36:26.465Z,11.90
2022-11-06T20:38:55.250Z,11.71
2022-11-06T20:41:22.129Z,11.77
2022-11-06T20:43:51.947Z,11.96
2022-11-06T20:46:21.128Z,11.89
2022-11-06T20:48:48.361Z,11.94
2022-11-06T20:51:16.812Z,11.86
2022-11-06T20:53:43.596Z,11.82
2022-11-06T20:56:14.520Z,11.84
2022-11-06T20:58:41.317Z,11.93
2022-11-06T21:01:15.338Z,11.77
2022-11-06T21:03:48.670Z,11.66
2022-11-06T21:06:20.612Z,11.81
2022-11-06T21:08:52.788Z,11.92
2022-11-06T21:11:25.631Z,11.82
2022-11-06T21:14:03.559Z,11.92
2022-11-06T21:19:21.362Z,11.99
2022-11-06T21:21:48.413Z,11.89
2022-11-06T21:24:15.063Z,11.90
2022-11-06T21:26:41.632Z,11.93
2022-11-06T21:29:10.852Z,11.84
2022-11-06T21:31:40.437Z,11.92
2022-11-06T21:34:09.760Z,12.05
2022-11-06T21:36:38.640Z,12.03
2022-11-06T21:39:07.672Z,11.96
2022-11-06T21:41:34.941Z,12.16
2022-11-06T21:44:02.260Z,12.21
2022-11-06T21:46:29.279Z,12.21
2022-11-06T21:48:56.695Z,12.29
2022-11-06T21:51:26.016Z,12.18
2022-11-06T21:53:55.321Z,12.03
2022-11-06T21:56:26.057Z,12.15
2022-11-06T21:58:54.763Z,12.05
2022-11-06T22:01:22.023Z,12.09
2022-11-06T22:03:48.978Z,12.10
2022-11-06T22:06:17.463Z,12.11
2022-11-06T22:08:45.444Z,12.25
2022-11-06T22:11:19.108Z,12.18
2022-11-06T22:13:46.986Z,11.91
2022-11-06T22:16:16.037Z,11.87
2022-11-06T22:18:42.681Z,11.95
2022-11-06T22:21:12.368Z,11.94
2022-11-06T22:23:39.306Z,11.89
2022-11-06T22:26:07.258Z,12.00
2022-11-06T22:28:35.924Z,12.00
2022-11-06T22:31:03.476Z,12.08
2022-11-06T22:33:31.555Z,12.04
2022-11-06T22:36:02.201Z,12.13
2022-11-06T22:38:28.872Z,12.32
2022-11-06T22:40:57.000Z,12.40
2022-11-06T22:43:23.635Z,12.64
2022-11-06T22:45:58.407Z,12.38
2022-11-06T22:48:25.486Z,12.41
2022-11-06T22:50:52.051Z,12.25
2022-11-06T22:53:18.787Z,11.96
2022-11-06T22:55:45.497Z,12.08
2022-11-06T22:58:12.148Z,12.04
2022-11-06T23:00:38.660Z,12.22
2022-11-06T23:03:06.717Z,12.08
2022-11-06T23:05:33.320Z,12.38
2022-11-06T23:07:59.964Z,12.16
2022-11-06T23:10:26.488Z,12.44
2022-11-06T23:12:53.372Z,12.53
2022-11-06T23:15:19.923Z,12.26
2022-11-06T23:17:46.620Z,12.53
2022-11-06T23:20:14.692Z,12.30
2022-11-06T23:22:41.245Z,12.53
2022-11-06T23:25:10.661Z,12.49
2022-11-06T23:27:38.196Z,12.78
2022-11-06T23:30:05.890Z,12.80
2022-11-06T23:32:34.662Z,12.77
2022-11-06T23:35:04.447Z,12.56
2022-11-06T23:37:33.245Z,12.58
2022-11-06T23:40:01.411Z,12.54
2022-11-06T23:42:28.196Z,12.59
2022-11-06T23:44:54.835Z,12.66
2022-11-06T23:47:21.610Z,12.80
2022-11-06T23:49:48.193Z,12.69
2022-11-06T23:52:14.745Z,12.95
2022-11-06T23:54:43.177Z,12.71
2022-11-06T23:57:10.283Z,12.79
2022-11-06T23:59:37.453Z,12.69
